Data for 07/21/2010

Time Sea-Level Adjusted Pressure Absolute Pressure Temperature Relative Humidity Dew Point   
(mb) (inHg) (mb) (inHg) (C) (F) (%) (C) (F)
00:05 1018 30.06 847 25.01 17.3 63.2 57 8.9 48
00:10 1018 30.06 847 25.01 17.3 63.1 57 8.9 48
00:15 1018 30.06 847 25.01 17.1 62.8 58 8.9 48
00:20 1018 30.06 847 25.01 17.1 62.7 58 8.8 47.9
00:25 1018 30.06 847 25.01 17 62.5 58 8.7 47.7
00:30 1018 30.06 847 25.01 16.9 62.4 58 8.8 47.8
00:35 1018 30.06 847 25.01 16.8 62.2 59 8.8 47.8
00:40 1018 30.06 847 25.01 16.7 62.1 59 8.7 47.7
00:45 1018 30.06 847 25.01 16.7 62.1 59 8.7 47.7
00:50 1018 30.06 847 25.01 16.7 62.1 59 8.8 47.8
00:55 1018 30.06 847 25.01 16.7 62 59 8.8 47.8
01:00 1018 30.06 847 25.01 16.6 61.9 60 8.8 47.9
01:05 1018 30.06 847 25.01 16.5 61.8 60 8.8 47.8
01:10 1018 30.06 847 25.01 16.5 61.8 60 8.8 47.8
01:15 1018 30.06 847 25.01 16.4 61.6 60 8.8 47.8
01:20 1018 30.06 847 25.01 16.3 61.4 61 8.8 47.8
01:25 1018 30.06 847 25.01 16.3 61.4 60 8.7 47.7
01:30 1018 30.06 847 25.01 16.3 61.3 61 8.9 47.9
01:35 1018 30.06 847 25.01 16.2 61.2 61 8.8 47.8
01:40 1018 30.06 847 25.01 16.3 61.3 61 8.9 48
01:45 1018 30.06 847 25.01 16.2 61.2 61 8.9 48
01:50 1018 30.06 847 25.01 16.2 61.2 61 8.8 47.8
01:55 1018 30.06 847 25.01 16.2 61.1 62 8.9 48.1
02:00 1018 30.06 847 25.01 16.1 61 62 8.9 48
02:05 1017 30.03 847 25.01 16 60.8 62 8.9 48
02:10 1017 30.03 847 25.01 16 60.8 62 8.9 48
02:15 1017 30.03 847 25.01 16 60.8 63 8.9 48
02:20 1018 30.06 847 25.01 15.9 60.6 63 9 48.1
02:25 1018 30.06 847 25.01 15.8 60.5 63 8.9 48.1
02:30 1018 30.06 847 25.01 15.8 60.4 63 8.9 48.1
02:35 1018 30.06 847 25.01 15.7 60.3 64 9 48.2
02:40 1018 30.06 847 25.01 15.7 60.2 64 9 48.1
02:45 1018 30.06 847 25.01 15.6 60.1 65 9 48.2
02:50 1018 30.06 847 25.01 15.5 60 64 8.9 48
02:55 1018 30.06 847 25.01 15.5 59.9 65 9.1 48.3
03:00 1018 30.06 847 25.01 15.4 59.7 65 8.9 48.1
03:05 1018 30.06 847 25.01 15.4 59.8 65 9 48.1
03:10 1018 30.06 847 25.01 15.4 59.8 65 9 48.1
03:15 1018 30.06 847 25.01 15.3 59.6 65 9 48.1
03:20 1018 30.06 847 25.01 15.2 59.4 66 9 48.1
03:25 1018 30.06 847 25.01 15.2 59.3 66 8.9 48.1
03:30 1018 30.06 847 25.01 15.1 59.1 66 8.9 48
03:35 1018 30.06 847 25.01 15 58.9 67 8.9 48.1
03:40 1018 30.06 847 25.01 14.9 58.9 67 8.9 47.9
03:45 1018 30.06 847 25.01 14.9 58.8 67 8.9 48
03:50 1018 30.06 847 25.01 14.9 58.8 67 8.9 48
03:55 1018 30.06 847 25.01 14.9 58.8 67 8.8 47.9
04:00 1018 30.06 847 25.01 14.9 58.8 67 8.9 48
04:05 1018 30.06 847 25.01 14.8 58.7 67 8.8 47.8
04:10 1018 30.06 847 25.01 14.8 58.7 67 8.9 47.9
04:15 1018 30.06 847 25.01 14.8 58.6 67 8.8 47.9
04:20 1018 30.06 847 25.01 14.7 58.5 67 8.8 47.9
04:25 1018 30.06 847 25.01 14.8 58.6 67 8.8 47.9
04:30 1018 30.06 847 25.01 14.7 58.5 68 8.9 48
04:35 1018 30.06 847 25.01 14.6 58.3 68 8.8 47.9
04:40 1018 30.06 847 25.01 14.5 58.1 68 8.8 47.9
04:45 1018 30.06 847 25.01 14.5 58 68 8.8 47.8
04:50 1018 30.06 847 25.01 14.4 58 69 8.8 47.8
04:55 1018 30.06 847 25.01 14.4 58 69 8.8 47.9
05:00 1018 30.06 847 25.01 14.5 58 68 8.8 47.8
05:05 1018 30.06 847 25.01 14.5 58.1 68 8.8 47.9
05:10 1018 30.06 847 25.01 14.5 58.1 68 8.8 47.9
05:15 1018 30.06 847 25.01 14.5 58 69 8.8 47.9
05:20 1018 30.06 847 25.01 14.4 57.9 69 8.8 47.9
05:25 1018 30.06 847 25.01 14.4 57.9 68 8.7 47.7
05:30 1018 30.06 847 25.01 14.4 58 69 8.8 47.8
05:35 1018 30.06 847 25.01 14.4 57.8 69 8.8 47.9
05:40 1018 30.06 847 25.01 14.3 57.8 69 8.8 47.8
05:45 1018 30.06 847 25.01 14.4 57.8 69 8.8 47.9
05:50 1018 30.06 847 25.01 14.3 57.7 70 8.9 48
05:55 1018 30.06 847 25.01 14.2 57.6 70 8.8 47.8
06:00 1018 30.06 847 25.01 14.2 57.6 69 8.8 47.8
06:05 1018 30.06 847 25.01 14.3 57.7 69 8.8 47.8
06:10 1018 30.06 847 25.01 14.2 57.6 70 8.8 47.9
06:15 1018 30.06 847 25.01 14.2 57.6 70 8.8 47.9
06:20 1018 30.06 848 25.04 14.1 57.5 70 8.8 47.8
06:25 1018 30.06 848 25.04 14.2 57.5 70 8.8 47.9
06:30 1018 30.06 848 25.04 14.1 57.4 70 8.8 47.9
06:35 1018 30.06 848 25.04 14.1 57.4 70 8.8 47.8
06:40 1018 30.06 848 25.04 14.2 57.6 69 8.7 47.7
06:45 1018 30.06 848 25.04 14.3 57.7 69 8.8 47.8
06:50 1018 30.06 848 25.04 14.4 57.8 69 8.8 47.9
06:55 1018 30.06 848 25.04 14.4 57.9 69 8.8 47.8
07:00 1019 30.09 848 25.04 14.5 58.1 69 8.9 48
07:05 1019 30.09 848 25.04 14.5 58.2 68 8.9 48
07:10 1018 30.06 848 25.04 14.6 58.3 68 8.9 48
07:15 1018 30.06 848 25.04 14.6 58.3 68 8.9 48
07:20 1018 30.06 848 25.04 14.7 58.5 68 8.9 48
07:25 1018 30.06 848 25.04 14.8 58.6 68 8.9 48
07:30 1018 30.06 848 25.04 14.9 58.7 68 9 48.1
07:35 1018 30.06 848 25.04 14.9 58.8 67 8.9 48
07:40 1018 30.06 848 25.04 15.1 59.1 66 8.9 48
07:45 1018 30.06 848 25.04 15.2 59.3 67 9.1 48.3
07:50 1018 30.06 848 25.04 15.3 59.6 66 9.1 48.3
07:55 1018 30.06 848 25.04 15.4 59.7 66 9.1 48.3
08:00 1018 30.06 848 25.04 15.6 60.1 65 9.1 48.4
08:05 1018 30.06 847 25.01 15.8 60.4 64 9.1 48.4
08:10 1018 30.06 847 25.01 15.8 60.4 64 9.2 48.5
08:15 1018 30.06 847 25.01 16.1 60.9 64 9.3 48.8
08:20 1018 30.06 847 25.01 16.1 60.9 64 9.3 48.7
08:25 1018 30.06 847 25.01 16.4 61.5 63 9.5 49
08:30 1018 30.06 847 25.01 16.6 61.9 63 9.6 49.2
08:35 1018 30.06 848 25.04 16.7 62.1 60 9.1 48.3
08:40 1018 30.06 848 25.04 16.9 62.4 60 9.1 48.4
08:45 1018 30.06 848 25.04 16.4 61.5 64 9.7 49.4
08:50 1018 30.06 848 25.04 16.5 61.7 61 9.1 48.4
08:55 1018 30.06 848 25.04 16.7 62.1 62 9.5 49.1
09:00 1018 30.06 848 25.04 16.8 62.2 61 9.3 48.8
09:05 1018 30.06 848 25.04 16.9 62.4 61 9.4 49
09:10 1018 30.06 848 25.04 17.5 63.4 60 9.7 49.4
09:15 1018 30.06 848 25.04 17.5 63.5 60 9.8 49.7
09:20 1018 30.06 848 25.04 17.6 63.6 59 9.6 49.3
09:25 1018 30.06 847 25.01 17.9 64.2 59 9.8 49.6
09:30 1018 30.06 847 25.01 18.3 65 56 9.6 49.3
09:35 1018 30.06 847 25.01 18.2 64.8 58 9.8 49.7
09:40 1018 30.06 847 25.01 18.3 64.9 56 9.6 49.3
09:45 1018 30.06 847 25.01 18.4 65.1 57 9.9 49.8
09:50 1018 30.06 847 25.01 18.6 65.5 57 9.9 49.9
09:55 1018 30.06 847 25.01 18.9 66 56 10.2 50.3
10:00 1018 30.06 847 25.01 18.7 65.6 57 10.2 50.3
10:05 1018 30.06 847 25.01 18.6 65.5 57 10 50
10:10 1018 30.06 847 25.01 18.8 65.8 58 10.3 50.5
10:15 1018 30.06 847 25.01 18.6 65.5 56 9.9 49.8
10:20 1018 30.06 847 25.01 19 66.2 56 10.1 50.3
10:25 1018 30.06 847 25.01 18.9 66 56 9.9 49.8
10:30 1018 30.06 847 25.01 19.1 66.4 53 9.5 49.1
10:35 1018 30.06 847 25.01 19.8 67.6 54 10.3 50.5
10:40 1018 30.06 847 25.01 19.6 67.2 54 10 50.1
10:45 1018 30.06 847 25.01 19.4 66.9 54 9.9 49.7
10:50 1018 30.06 847 25.01 19.4 66.9 54 10 50
10:55 1018 30.06 847 25.01 20 68.1 53 10.2 50.3
11:00 1018 30.06 847 25.01 20.2 68.4 52 10.2 50.4
11:05 1018 30.06 847 25.01 20.2 68.4 51 9.8 49.6
11:10 1018 30.06 847 25.01 20 68.1 51 9.8 49.6
11:15 1018 30.06 847 25.01 20.8 69.5 49 9.8 49.6
11:20 1018 30.06 847 25.01 21.5 70.6 48 10.1 50.1
11:25 1018 30.06 847 25.01 22.1 71.8 47 10.3 50.5
11:30 1017 30.03 847 25.01 21.5 70.7 49 10.5 51
11:35 1017 30.03 847 25.01 21.6 70.8 48 10.1 50.2
11:40 1017 30.03 847 25.01 21.7 71 48 10.2 50.4
11:45 1017 30.03 846 24.98 21.6 70.8 47 10.1 50.1
11:50 1017 30.03 846 24.98 21.8 71.3 46 9.8 49.6
11:55 1017 30.03 846 24.98 21.8 71.2 48 10.3 50.5
12:00 1017 30.03 846 24.98 21.3 70.4 50 10.7 51.2
12:05 1017 30.03 846 24.98 20.8 69.4 53 10.9 51.5
12:10 1017 30.03 846 24.98 20.1 68.2 51 9.9 49.8
12:15 1017 30.03 846 24.98 21 69.7 50 10.2 50.4
12:20 1017 30.03 846 24.98 21.4 70.5 49 10.6 51
12:25 1017 30.03 846 24.98 22.5 72.6 46 10.7 51.2
12:30 1017 30.03 846 24.98 22.4 72.3 47 10.7 51.3
12:35 1017 30.03 846 24.98 21.9 71.5 48 10.5 50.8
12:40 1017 30.03 846 24.98 21.7 71.1 49 10.7 51.2
12:45 1017 30.03 846 24.98 21.9 71.5 48 10.5 50.9
12:50 1017 30.03 846 24.98 22.3 72.2 46 10.4 50.7
12:55 1017 30.03 846 24.98 22.6 72.7 45 10.2 50.4
13:00 1017 30.03 846 24.98 23.1 73.6 43 9.9 49.8
13:05 1017 30.03 846 24.98 23.6 74.4 42 10.1 50.2
13:10 1017 30.03 846 24.98 23.4 74.1 45 10.8 51.5
13:15 1017 30.03 846 24.98 23.5 74.3 42 10.2 50.3
13:20 1017 30.03 846 24.98 24.1 75.4 41 10.3 50.5
13:25 1017 30.03 846 24.98 24.7 76.5 42 11.1 51.9
13:30 1017 30.03 846 24.98 24.4 75.9 41 10.5 50.8
13:35 1017 30.03 846 24.98 23.6 74.5 43 10.6 51.1
13:40 1017 30.03 846 24.98 24 75.2 42 10.4 50.7
13:45 1017 30.03 846 24.98 23.6 74.5 45 11.1 52
13:50 1017 30.03 846 24.98 23.6 74.4 41 9.8 49.6
13:55 1017 30.03 846 24.98 23.9 75 40 9.7 49.5
14:00 1017 30.03 846 24.98 24.8 76.6 39 10 49.9
14:05 1017 30.03 846 24.98 25.5 77.9 37 9.8 49.6
14:10 1017 30.03 846 24.98 25.7 78.2 38 10.4 50.7
14:15 1017 30.03 846 24.98 25.9 78.5 38 10.8 51.4
14:20 1016 30 846 24.98 25.8 78.4 36 9.8 49.6
14:25 1016 30 846 24.98 25.9 78.6 37 10.4 50.6
14:30 1016 30 846 24.98 25.5 77.9 36 9.7 49.5
14:35 1016 30 845 24.95 25.8 78.5 36 9.9 49.7
14:40 1016 30 845 24.95 25.8 78.4 36 9.9 49.9
14:45 1016 30 845 24.95 25.7 78.2 36 9.9 49.7
14:50 1016 30 845 24.95 26.6 79.9 33 9.2 48.6
14:55 1016 30 845 24.95 26.4 79.5 37 10.9 51.7
15:00 1016 30 845 24.95 25.1 77.1 37 9.6 49.2
15:05 1016 30 845 24.95 26.3 79.3 35 9.9 49.8
15:10 1016 30 845 24.95 26.2 79.2 37 10.5 51
15:15 1016 30 845 24.95 25.8 78.4 38 10.5 50.9
15:20 1016 30 845 24.95 25.5 77.9 37 10.1 50.3
15:25 1016 30 845 24.95 25.2 77.3 39 10.3 50.6
15:30 1016 30 845 24.95 24.7 76.4 38 9.8 49.6
15:35 1016 30 845 24.95 24.4 76 39 9.7 49.5
15:40 1016 30 845 24.95 24.2 75.5 38 9.3 48.8
15:45 1016 30 845 24.95 23.9 75 40 9.5 49.2
15:50 1016 30 845 24.95 24.4 75.9 39 9.8 49.7
15:55 1015 29.97 845 24.95 24.3 75.7 37 9.1 48.3
16:00 1015 29.97 845 24.95 24.2 75.6 38 9.1 48.5
16:05 1015 29.97 844 24.92 24.3 75.7 36 8.7 47.6
16:10 1015 29.97 844 24.92 24.5 76.2 36 8.6 47.6
16:15 1015 29.97 844 24.92 24.2 75.5 35 8.2 46.7
16:20 1015 29.97 844 24.92 24.2 75.6 35 8 46.5
16:25 1015 29.97 844 24.92 23.9 75 35 7.8 46
16:30 1015 29.97 844 24.92 23.5 74.3 36 7.9 46.2
16:35 1015 29.97 844 24.92 23.2 73.8 36 7.7 45.8
16:40 1015 29.97 844 24.92 23.1 73.6 35 7.1 44.7
16:45 1015 29.97 844 24.92 23 73.4 36 7.2 44.9
16:50 1015 29.97 844 24.92 22.9 73.2 38 7.9 46.3
16:55 1015 29.97 844 24.92 22.8 73 37 7.7 45.9
17:00 1015 29.97 844 24.92 22.7 72.8 38 7.7 45.9
17:05 1015 29.97 844 24.92 22.7 72.8 37 7.6 45.7
17:10 1015 29.97 844 24.92 22.6 72.7 39 8.1 46.5
17:15 1015 29.97 844 24.92 22.4 72.4 43 9.3 48.8
17:20 1015 29.97 844 24.92 21.9 71.5 49 10.9 51.6
17:25 1015 29.97 844 24.92 20.8 69.5 50 10.2 50.4
17:30 1016 30 845 24.95 19.9 67.8 49 9 48.2
17:35 1016 30 845 24.95 19.3 66.8 45 7.1 44.8
17:40 1016 30 845 24.95 19.1 66.4 44 6.8 44.2
17:45 1016 30 845 24.95 18.9 66 47 7.3 45.2
17:50 1016 30 845 24.95 18.7 65.6 51 8.4 47.1
17:55 1016 30 845 24.95 18.5 65.2 54 9 48.1
18:00 1016 30 845 24.95 18.2 64.8 60 10.4 50.8
18:05 1016 30 845 24.95 18 64.3 61 10.3 50.6
18:10 1016 30 845 24.95 17.6 63.6 61 10.2 50.3
18:15 1016 30 845 24.95 17.4 63.3 65 10.9 51.6
18:20 1016 30 845 24.95 17 62.6 64 10.3 50.5
18:25 1016 30 845 24.95 16.7 62 73 11.9 53.5
18:30 1016 30 845 24.95 16 60.9 73 11.2 52.2
18:35 1016 30 845 24.95 16 60.8 74 11.4 52.6
18:40 1016 30 846 24.98 16.4 61.6 69 10.8 51.4
18:45 1017 30.03 846 24.98 16.9 62.4 69 11.3 52.4
18:50 1017 30.03 846 24.98 16.8 62.2 65 10.2 50.3
18:55 1017 30.03 846 24.98 17.3 63.1 65 10.6 51.2
19:00 1017 30.03 846 24.98 18.1 64.5 64 11.3 52.3
19:05 1017 30.03 846 24.98 17.9 64.1 66 11.4 52.6
19:10 1017 30.03 846 24.98 17.4 63.3 61 9.8 49.6
19:15 1017 30.03 846 24.98 17.5 63.5 61 10.1 50.1
19:20 1017 30.03 846 24.98 17.6 63.7 60 9.8 49.6
19:25 1017 30.03 846 24.98 17.4 63.2 62 10.1 50.2
19:30 1017 30.03 847 25.01 17.5 63.6 61 10 50.1
19:35 1017 30.03 847 25.01 17.7 63.8 62 10.5 50.9
19:40 1017 30.03 847 25.01 17.8 64 61 10.3 50.5
19:45 1017 30.03 847 25.01 17.7 63.8 63 10.5 51
19:50 1017 30.03 847 25.01 17.7 63.9 60 10 50
19:55 1018 30.06 847 25.01 17.5 63.5 63 10.4 50.6
20:00 1018 30.06 847 25.01 17.1 62.8 64 10.3 50.5
20:05 1018 30.06 847 25.01 17 62.5 65 10.5 50.9
20:10 1018 30.06 847 25.01 16.9 62.5 65 10.3 50.6
20:15 1018 30.06 847 25.01 16.9 62.3 66 10.6 51
20:20 1018 30.06 847 25.01 16.7 62 70 11.1 52
20:25 1018 30.06 847 25.01 16.5 61.7 70 11.1 51.9
20:30 1018 30.06 847 25.01 16.5 61.6 70 11.1 51.9
20:35 1018 30.06 847 25.01 16.4 61.6 70 11 51.8
20:40 1018 30.06 847 25.01 16.4 61.5 72 11.4 52.5
20:45 1018 30.06 847 25.01 16.4 61.5 71 11.2 52.2
20:50 1018 30.06 847 25.01 16.3 61.4 68 10.5 50.9
20:55 1018 30.06 847 25.01 16.3 61.3 64 9.6 49.3
21:00 1018 30.06 847 25.01 16.2 61.1 64 9.5 49.1
21:05 1018 30.06 847 25.01 16 60.8 65 9.6 49.3
21:10 1018 30.06 847 25.01 15.9 60.5 68 10 50.1
21:15 1018 30.06 847 25.01 15.8 60.4 70 10.4 50.8
21:20 1018 30.06 848 25.04 15.8 60.4 73 10.9 51.6
21:25 1019 30.09 848 25.04 15.9 60.5 73 11.1 52.1
21:30 1019 30.09 848 25.04 15.6 60.2 74 11.1 51.9
21:35 1019 30.09 848 25.04 15.6 60.1 75 11.3 52.3
21:40 1019 30.09 848 25.04 15.5 59.9 75 11.2 52.2
21:45 1019 30.09 848 25.04 15.4 59.7 76 11.3 52.3
21:50 1018 30.06 848 25.04 15.3 59.5 77 11.4 52.5
21:55 1018 30.06 848 25.04 15.1 59.2 77 11.2 52.2
22:00 1018 30.06 847 25.01 15.1 59.2 77 11.1 51.9
22:05 1018 30.06 847 25.01 15.2 59.3 75 10.9 51.6
22:10 1018 30.06 847 25.01 15.2 59.3 74 10.6 51.1
22:15 1018 30.06 847 25.01 15.1 59.1 74 10.5 50.9
22:20 1018 30.06 847 25.01 14.9 58.9 73 10.2 50.4
22:25 1018 30.06 847 25.01 14.8 58.6 73 10.1 50.1
22:30 1018 30.06 848 25.04 14.8 58.6 72 9.8 49.7
22:35 1018 30.06 848 25.04 14.8 58.6 72 9.9 49.7
22:40 1019 30.09 848 25.04 14.9 58.8 68 9.2 48.6
22:45 1019 30.09 848 25.04 15.2 59.3 69 9.6 49.2
22:50 1019 30.09 848 25.04 15.2 59.3 72 10.1 50.2
22:55 1019 30.09 848 25.04 15.2 59.3 72 10.1 50.2
23:00 1019 30.09 848 25.04 15.3 59.6 72 10.4 50.8
23:05 1019 30.09 848 25.04 15.5 59.9 71 10.3 50.6
23:10 1019 30.09 848 25.04 15.6 60 72 10.7 51.2
23:15 1019 30.09 848 25.04 15.5 59.9 71 10.3 50.5
23:20 1019 30.09 848 25.04 15.3 59.5 72 10.3 50.5
23:25 1019 30.09 848 25.04 15.1 59.1 73 10.3 50.5
23:30 1019 30.09 848 25.04 15 59 73 10.2 50.4
23:35 1019 30.09 848 25.04 14.8 58.7 75 10.6 51
23:40 1018 30.06 848 25.04 14.5 58.2 77 10.5 50.9
23:45 1018 30.06 847 25.01 14.4 57.9 76 10.2 50.4
23:50 1018 30.06 847 25.01 14.3 57.7 76 10.2 50.3
23:55 1018 30.06 847 25.01 14.1 57.3 77 10.1 50.2
24:00 1018 30.06 847 25.01 13.9 57.1 76 9.9 49.8